Bay Harbor, Michigan
Current Conditions -  °F | °C
As of 2:34 PM on Thursday 18 Dec 2014 (Local Time) from KMGN Reporting Station
Clear Clear  
Wind Chill: 25°   Ceiling: Unl
Heat Index: 25°   Visibility: 10mi
Dew Point: 16°   Wind: 0mph
Humidity: 67%   Direction: NA
Pressure: 30.2"   Gusts: NA
Location:  45.3433°N, 84.8827°W
Report Text: KMGN 181934Z AUTO 00000KT 10SM CLR M03/M09 A3020 RMK AO2 T10381091
Loading
Personal Weather Stations






























Interactive Weather Map New forecast layout! Learn more

10-Day Weather Forecast

Advertisements
Track Severe Weather on mobile